Time;durP1;ratioP1;P1;durP2;ratioP2;P2;SDS_P1;SDS_P2;PMS_P1;PMS_P2;Temp;Humidity;BMP_temperature;BMP_pressure;BME280_temperature;BME280_humidity;BME280_pressure;Samples;Min_cycle;Max_cycle;Signal;HPM_P1;HPM_P2
2022/07/10 00:00:43;;;;;;;5.63;1.50;;;14.10;99.90;;;;;;6180388;22;20011;-92
2022/07/10 00:03:09;;;;;;;5.68;1.17;;;14.10;99.90;;;;;;6199674;22;20400;-93
2022/07/10 00:05:38;;;;;;;4.10;1.60;;;14.10;99.90;;;;;;6200070;22;20041;-95
2022/07/10 00:08:04;;;;;;;7.07;1.63;;;14.10;99.90;;;;;;6201647;22;20141;-93
2022/07/10 00:10:32;;;;;;;5.45;1.52;;;14.10;99.90;;;;;;6200810;22;20062;-92
2022/07/10 00:12:58;;;;;;;6.00;1.27;;;14.10;99.90;;;;;;6227194;22;20130;-93
2022/07/10 00:15:24;;;;;;;7.25;1.48;;;14.20;99.90;;;;;;6176574;22;20050;-94
2022/07/10 00:17:52;;;;;;;4.72;1.52;;;14.10;99.90;;;;;;6205461;22;20008;-94
2022/07/10 00:20:18;;;;;;;7.47;1.33;;;14.20;99.90;;;;;;6180154;22;20468;-93
2022/07/10 00:22:44;;;;;;;5.20;1.08;;;14.20;99.90;;;;;;6207837;22;20441;-93
2022/07/10 00:25:12;;;;;;;5.05;1.15;;;14.00;99.90;;;;;;6181449;22;20113;-93
2022/07/10 00:27:39;;;;;;;6.07;1.40;;;14.10;99.90;;;;;;6207773;22;20086;-95
2022/07/10 00:30:06;;;;;;;5.47;1.45;;;14.00;99.90;;;;;;6232976;22;20039;-94
2022/07/10 00:32:37;;;;;;;7.78;1.63;;;14.00;99.90;;;;;;6207978;22;20016;-93
2022/07/10 00:35:03;;;;;;;5.50;1.25;;;13.80;99.90;;;;;;6231901;22;20038;-94
2022/07/10 00:37:29;;;;;;;1.80;0.80;;;13.20;99.90;;;;;;6206857;22;20019;-94
2022/07/10 00:39:55;;;;;;;4.00;1.10;;;13.90;99.90;;;;;;6179968;22;20034;-95
2022/07/10 00:42:21;;;;;;;3.90;1.13;;;13.90;99.90;;;;;;6182020;22;20012;-95
2022/07/10 00:44:47;;;;;;;8.50;2.22;;;13.90;99.90;;;;;;6182777;22;20035;-95
2022/07/10 00:47:19;;;;;;;6.43;1.15;;;14.00;99.90;;;;;;6181027;22;20090;-95
2022/07/10 00:49:46;;;;;;;7.25;1.15;;;13.90;99.90;;;;;;6208466;22;20012;-95
2022/07/10 00:52:15;;;;;;;5.55;1.20;;;13.80;99.90;;;;;;6207661;22;20006;-94
2022/07/10 00:54:47;;;;;;;4.03;1.23;;;13.80;99.90;;;;;;6232139;22;20047;-94
2022/07/10 00:57:15;;;;;;;5.53;1.42;;;13.70;99.90;;;;;;6230960;22;20090;-93
2022/07/10 00:59:41;;;;;;;7.20;1.67;;;13.60;99.90;;;;;;6206789;22;20012;-94
2022/07/10 01:02:08;;;;;;;8.30;1.77;;;13.60;99.90;;;;;;6173550;22;20016;-93
2022/07/10 01:04:39;;;;;;;4.65;1.38;;;12.70;99.90;;;;;;6222832;22;20095;-94
2022/07/10 01:07:05;;;;;;;4.50;1.40;;;13.70;99.90;;;;;;6224398;22;20023;-94
2022/07/10 01:09:34;;;;;;;5.28;1.13;;;13.70;99.90;;;;;;6198333;22;20015;-92
2022/07/10 01:12:01;;;;;;;5.07;1.17;;;13.80;99.90;;;;;;6199107;22;20098;-92
2022/07/10 01:14:29;;;;;;;5.75;1.40;;;13.80;99.90;;;;;;6198190;22;20018;-93
2022/07/10 01:16:55;;;;;;;7.10;1.40;;;13.80;99.90;;;;;;6223472;22;20008;-92
2022/07/10 01:19:21;;;;;;;4.20;1.13;;;13.90;99.90;;;;;;6199410;22;20397;-94
2022/07/10 01:21:47;;;;;;;6.80;2.10;;;13.80;99.90;;;;;;6223187;22;20022;-92
2022/07/10 01:24:13;;;;;;;5.22;1.27;;;13.80;99.90;;;;;;6222340;22;20027;-93
2022/07/10 01:26:42;;;;;;;5.95;1.10;;;13.20;99.90;;;;;;6223109;22;20480;-92
2022/07/10 01:29:11;;;;;;;3.20;1.42;;;13.90;99.90;;;;;;6223664;22;20369;-93
2022/07/10 01:31:37;;;;;;;4.60;1.38;;;13.90;99.90;;;;;;6223790;22;20058;-92
2022/07/10 01:34:09;;;;;;;3.17;1.42;;;13.90;99.90;;;;;;6197948;22;20039;-93
2022/07/10 01:36:35;;;;;;;5.78;1.13;;;13.90;99.90;;;;;;6225127;22;20011;-94
2022/07/10 01:39:02;;;;;;;5.43;1.30;;;13.90;99.90;;;;;;6199929;22;20007;-92
2022/07/10 01:41:28;;;;;;;5.30;1.08;;;13.80;99.90;;;;;;6175633;22;20007;-93
2022/07/10 01:43:56;;;;;;;4.82;1.08;;;13.70;99.90;;;;;;6172432;22;20377;-92
2022/07/10 01:46:28;;;;;;;6.03;1.10;;;13.10;99.90;;;;;;6222886;22;20445;-92
2022/07/10 01:48:56;;;;;;;4.22;1.33;;;13.70;99.90;;;;;;6199192;22;20087;-92
2022/07/10 01:51:22;;;;;;;5.78;1.30;;;13.70;99.90;;;;;;6173486;22;20047;-92
2022/07/10 01:53:48;;;;;;;4.20;1.10;;;13.80;99.90;;;;;;6217849;22;20023;-94
2022/07/10 01:56:15;;;;;;;6.40;1.20;;;13.70;99.90;;;;;;6197257;22;20016;-95
2022/07/10 01:58:41;;;;;;;8.77;1.65;;;13.80;99.90;;;;;;6199088;22;20097;-94
2022/07/10 02:01:08;;;;;;;7.57;1.25;;;13.70;99.90;;;;;;6225276;22;20014;-94
2022/07/10 02:06:19;;;;;;;5.50;1.20;;;13.70;99.90;;;;;;6206811;22;20022;-91
2022/07/10 02:08:45;;;;;;;4.68;1.40;;;13.80;99.90;;;;;;6220341;22;20051;-92
2022/07/10 02:11:12;;;;;;;5.38;1.42;;;13.80;99.90;;;;;;6170555;22;20047;-92
2022/07/10 02:13:38;;;;;;;8.45;1.55;;;13.90;99.90;;;;;;6196132;22;20015;-94
2022/07/10 02:16:04;;;;;;;8.52;1.50;;;13.90;99.90;;;;;;6172547;22;20050;-93
2022/07/10 02:18:32;;;;;;;6.70;1.38;;;13.80;99.90;;;;;;6197634;22;20012;-93
2022/07/10 02:20:58;;;;;;;4.35;1.33;;;13.80;99.90;;;;;;6172507;22;20026;-92
2022/07/10 02:23:24;;;;;;;5.78;1.55;;;13.80;99.90;;;;;;6221981;22;20015;-92
2022/07/10 02:25:49;;;;;;;7.05;1.60;;;13.80;99.90;;;;;;6194256;22;20027;-92
2022/07/10 02:28:15;;;;;;;8.75;1.40;;;13.70;99.90;;;;;;6191430;22;20020;-92
2022/07/10 02:30:44;;;;;;;5.72;1.67;;;13.70;99.90;;;;;;6193616;22;20015;-94
2022/07/10 02:33:09;;;;;;;8.77;2.38;;;13.70;99.90;;;;;;6198755;22;20015;-94
2022/07/10 02:35:35;;;;;;;3.53;1.27;;;13.60;99.90;;;;;;6200834;22;20011;-93
2022/07/10 02:38:01;;;;;;;8.80;1.55;;;13.60;99.90;;;;;;6175191;22;20094;-93
2022/07/10 02:40:27;;;;;;;8.82;1.80;;;13.50;99.90;;;;;;6200807;22;20090;-94
2022/07/10 02:42:53;;;;;;;5.57;1.10;;;13.40;99.90;;;;;;6199337;22;20022;-93
2022/07/10 02:45:19;;;;;;;9.25;1.50;;;13.40;99.90;;;;;;6199061;22;20016;-94
2022/07/10 02:47:45;;;;;;;7.03;1.45;;;13.40;99.90;;;;;;6175318;22;20015;-94
2022/07/10 02:50:11;;;;;;;5.80;1.20;;;13.40;99.90;;;;;;6198318;22;20023;-94
2022/07/10 02:52:37;;;;;;;6.65;1.58;;;13.30;99.90;;;;;;6174121;22;20052;-93
2022/07/10 02:55:03;;;;;;;4.80;1.13;;;13.40;99.90;;;;;;6172086;22;20026;-92
2022/07/10 02:57:29;;;;;;;4.68;1.17;;;13.50;99.90;;;;;;6197409;22;20008;-92
2022/07/10 02:59:55;;;;;;;6.43;1.42;;;13.50;99.90;;;;;;6172140;22;20008;-93
2022/07/10 03:02:20;;;;;;;4.20;1.13;;;13.50;99.90;;;;;;6198234;22;20068;-94
2022/07/10 03:04:46;;;;;;;4.32;1.10;;;13.50;99.90;;;;;;6174013;22;20016;-93
2022/07/10 03:07:12;;;;;;;6.20;1.35;;;13.50;99.90;;;;;;6172834;22;20085;-91
2022/07/10 03:09:39;;;;;;;4.68;1.38;;;13.60;99.90;;;;;;6174144;22;20445;-94
2022/07/10 03:12:05;;;;;;;5.13;1.65;;;13.60;99.90;;;;;;6175699;22;20075;-94
2022/07/10 03:14:31;;;;;;;4.90;1.20;;;13.50;99.90;;;;;;6175786;22;20039;-92
2022/07/10 03:16:57;;;;;;;6.47;2.03;;;13.60;99.90;;;;;;6175284;22;20011;-94
2022/07/10 03:19:23;;;;;;;7.20;1.30;;;13.50;99.90;;;;;;6174284;22;20440;-93
2022/07/10 03:21:49;;;;;;;7.40;1.25;;;13.40;99.90;;;;;;6174957;22;20053;-93
2022/07/10 03:24:14;;;;;;;6.32;1.45;;;13.50;99.90;;;;;;6199331;22;20023;-93
2022/07/10 03:26:40;;;;;;;10.85;1.50;;;13.50;99.90;;;;;;6175114;22;20337;-93
2022/07/10 03:29:06;;;;;;;3.55;1.10;;;13.50;99.90;;;;;;6199799;22;20039;-93
2022/07/10 03:31:32;;;;;;;5.07;1.33;;;13.50;99.90;;;;;;6174702;22;20012;-92
2022/07/10 03:33:58;;;;;;;5.15;1.35;;;13.50;99.90;;;;;;6174905;22;20047;-93
2022/07/10 03:36:24;;;;;;;7.28;1.42;;;13.60;99.90;;;;;;6175869;22;20020;-93
2022/07/10 03:38:52;;;;;;;8.43;1.50;;;13.50;99.90;;;;;;6199708;22;20103;-92
2022/07/10 03:41:18;;;;;;;6.38;1.33;;;13.60;99.90;;;;;;6174794;22;20018;-94
2022/07/10 03:43:44;;;;;;;8.23;1.73;;;13.80;99.90;;;;;;6173518;22;20012;-93
2022/07/10 03:46:10;;;;;;;5.68;1.30;;;13.80;99.90;;;;;;6173977;22;20119;-92
2022/07/10 03:48:36;;;;;;;6.80;1.58;;;13.90;99.90;;;;;;6197962;22;20023;-93
2022/07/10 03:51:02;;;;;;;7.03;1.35;;;13.90;99.90;;;;;;6198745;22;20019;-91
2022/07/10 03:53:28;;;;;;;6.80;1.05;;;13.80;99.90;;;;;;6197900;22;20086;-94
2022/07/10 03:55:54;;;;;;;9.85;1.45;;;14.00;99.90;;;;;;6176339;22;20011;-94
2022/07/10 03:58:20;;;;;;;6.47;1.27;;;14.00;99.90;;;;;;6203735;22;20387;-92
2022/07/10 04:00:49;;;;;;;5.80;1.20;;;14.00;99.90;;;;;;6201449;22;20319;-93
2022/07/10 04:03:15;;;;;;;6.03;1.52;;;13.30;99.90;;;;;;6200918;22;20015;-94
2022/07/10 04:05:41;;;;;;;8.18;1.60;;;14.10;99.90;;;;;;6177553;22;20008;-93
2022/07/10 04:08:09;;;;;;;6.80;1.92;;;14.20;99.90;;;;;;6176454;22;20055;-93
2022/07/10 04:10:36;;;;;;;5.05;1.63;;;14.10;99.90;;;;;;6200185;22;20019;-93
2022/07/10 04:13:02;;;;;;;8.43;1.35;;;14.30;99.90;;;;;;6199626;22;20008;-91
2022/07/10 04:15:30;;;;;;;6.22;1.60;;;13.70;99.90;;;;;;6174571;22;20070;-94
2022/07/10 04:17:56;;;;;;;12.05;2.03;;;14.50;99.90;;;;;;6224074;22;20019;-92
2022/07/10 04:20:23;;;;;;;6.90;1.27;;;14.40;99.90;;;;;;6174295;22;20011;-94
2022/07/10 04:22:49;;;;;;;11.02;1.83;;;14.50;99.90;;;;;;6175843;22;20063;-93
2022/07/10 04:25:15;;;;;;;9.20;1.73;;;14.40;99.90;;;;;;6199238;22;20019;-93
2022/07/10 04:27:41;;;;;;;5.90;1.40;;;14.40;99.90;;;;;;6199655;22;20024;-92
2022/07/10 04:30:07;;;;;;;5.10;1.52;;;14.50;99.90;;;;;;6225342;22;20016;-94
2022/07/10 04:32:33;;;;;;;8.05;1.88;;;14.50;99.90;;;;;;6202019;22;20346;-94
2022/07/10 04:35:01;;;;;;;10.70;2.17;;;14.50;99.90;;;;;;6201976;22;20012;-93
2022/07/10 04:37:27;;;;;;;8.82;1.70;;;14.60;99.90;;;;;;6202187;22;20008;-93
2022/07/10 04:39:54;;;;;;;7.95;1.58;;;14.50;99.90;;;;;;6177913;22;20012;-92
2022/07/10 04:42:20;;;;;;;9.63;1.40;;;14.50;99.90;;;;;;6207110;22;20018;-95
2022/07/10 04:44:46;;;;;;;9.68;1.73;;;14.50;99.90;;;;;;6182067;22;20381;-94
2022/07/10 04:47:12;;;;;;;11.27;2.05;;;14.60;99.90;;;;;;6232006;22;20437;-95
2022/07/10 04:49:38;;;;;;;7.05;1.67;;;14.60;99.90;;;;;;6183232;22;20054;-96
2022/07/10 04:52:06;;;;;;;6.10;1.48;;;14.60;99.90;;;;;;6182999;22;20016;-96
2022/07/10 04:54:32;;;;;;;8.02;1.80;;;14.60;99.90;;;;;;6207344;22;20012;-94
2022/07/10 04:57:00;;;;;;;5.05;1.10;;;14.60;99.90;;;;;;6184796;22;20095;-95
2022/07/10 04:59:26;;;;;;;8.82;1.95;;;14.60;99.90;;;;;;6211345;22;20011;-96
2022/07/10 05:01:53;;;;;;;6.70;1.45;;;14.60;99.90;;;;;;6238289;22;20142;-96
2022/07/10 05:04:21;;;;;;;5.72;1.70;;;14.60;99.90;;;;;;6235614;22;20380;-95
2022/07/10 05:06:48;;;;;;;6.95;1.80;;;14.60;99.90;;;;;;6185193;22;20018;-94
2022/07/10 05:09:19;;;;;;;5.43;1.30;;;14.60;99.90;;;;;;6234181;22;20012;-96
2022/07/10 05:11:48;;;;;;;6.60;1.40;;;14.60;99.90;;;;;;6235576;22;20106;-96
2022/07/10 05:14:14;;;;;;;8.40;1.92;;;13.80;99.90;;;;;;6234286;22;20015;-95
2022/07/10 05:16:42;;;;;;;6.68;1.50;;;14.60;99.90;;;;;;6211565;22;20391;-96
2022/07/10 05:19:08;;;;;;;8.20;1.52;;;14.70;99.90;;;;;;6234972;22;20022;-95
2022/07/10 05:21:35;;;;;;;5.85;1.30;;;14.70;99.90;;;;;;6183409;22;20071;-95
2022/07/10 05:24:01;;;;;;;5.22;1.33;;;14.80;99.90;;;;;;6207778;22;20015;-96
2022/07/10 05:26:29;;;;;;;4.97;1.52;;;14.70;99.90;;;;;;6183106;22;20015;-95
2022/07/10 05:28:55;;;;;;;7.45;1.75;;;14.90;99.90;;;;;;6209705;22;20015;-95
2022/07/10 05:31:21;;;;;;;7.00;1.52;;;14.90;99.90;;;;;;6185771;22;20063;-93
2022/07/10 05:33:54;;;;;;;4.68;1.35;;;14.90;99.90;;;;;;6214937;22;20042;-96
2022/07/10 05:36:20;;;;;;;6.18;1.45;;;14.80;99.90;;;;;;6236026;22;20011;-96
2022/07/10 05:38:50;;;;;;;4.80;1.80;;;15.00;99.90;;;;;;6211388;22;20023;-94
2022/07/10 05:41:16;;;;;;;6.68;1.50;;;15.10;99.90;;;;;;6237850;22;20048;-96
2022/07/10 05:43:42;;;;;;;8.80;1.50;;;15.10;99.90;;;;;;6183865;22;20012;-94
2022/07/10 05:46:08;;;;;;;6.20;1.50;;;15.20;99.90;;;;;;6208896;22;20026;-95
2022/07/10 05:48:34;;;;;;;5.13;1.38;;;15.10;99.90;;;;;;6185750;22;20085;-95
2022/07/10 05:51:03;;;;;;;6.03;1.50;;;15.20;99.90;;;;;;6212455;22;20023;-93
2022/07/10 05:53:29;;;;;;;7.45;1.70;;;15.20;99.90;;;;;;6240939;22;20063;-95
2022/07/10 05:55:59;;;;;;;7.07;1.70;;;15.20;99.90;;;;;;6184734;22;20027;-94
2022/07/10 05:58:25;;;;;;;7.63;1.23;;;15.20;99.90;;;;;;6210107;22;20019;-94
2022/07/10 06:00:51;;;;;;;5.63;1.42;;;15.20;99.90;;;;;;6185263;22;20345;-95
2022/07/10 06:03:17;;;;;;;5.93;1.40;;;15.10;99.90;;;;;;6185301;22;20014;-95
2022/07/10 06:05:43;;;;;;;4.80;1.60;;;15.20;99.90;;;;;;6182073;22;20079;-96
2022/07/10 06:08:11;;;;;;;6.38;1.33;;;15.30;99.90;;;;;;6209023;22;20016;-96
2022/07/10 06:10:39;;;;;;;4.68;1.27;;;15.20;99.90;;;;;;6210672;22;20065;-93
2022/07/10 06:13:07;;;;;;;5.15;1.25;;;15.30;99.90;;;;;;6210059;22;20012;-96
2022/07/10 06:15:33;;;;;;;6.13;1.38;;;15.20;99.90;;;;;;6234422;22;20019;-95
2022/07/10 06:17:59;;;;;;;5.45;1.50;;;15.10;99.90;;;;;;6182668;22;20141;-95
2022/07/10 06:20:26;;;;;;;6.35;1.92;;;15.20;99.90;;;;;;6184263;22;20011;-96
2022/07/10 06:22:52;;;;;;;6.05;1.52;;;15.20;99.90;;;;;;6208932;22;20016;-95
2022/07/10 06:25:18;;;;;;;7.32;1.23;;;15.30;99.90;;;;;;6208511;22;20035;-95
2022/07/10 06:27:46;;;;;;;4.32;1.30;;;16.10;99.90;;;;;;6234511;22;20011;-96
2022/07/10 06:30:12;;;;;;;7.18;1.42;;;15.30;99.90;;;;;;6209184;22;20012;-96
2022/07/10 06:32:39;;;;;;;7.35;1.45;;;15.30;99.90;;;;;;6183474;22;20049;-96
2022/07/10 06:35:06;;;;;;;6.18;1.30;;;15.00;99.90;;;;;;6233005;22;20077;-94
2022/07/10 06:37:34;;;;;;;6.78;1.55;;;15.40;99.90;;;;;;6187460;22;20008;-96
2022/07/10 06:40:00;;;;;;;5.68;1.40;;;15.40;99.90;;;;;;6207189;22;20083;-95
2022/07/10 06:42:26;;;;;;;7.03;1.20;;;15.50;99.90;;;;;;6205626;22;20015;-96
2022/07/10 06:44:52;;;;;;;4.88;1.70;;;15.20;99.90;;;;;;6206232;22;20083;-95
2022/07/10 06:50:09;;;;;;;4.57;1.05;;;15.10;99.90;;;;;;6235312;22;20038;-96
2022/07/10 06:52:39;;;;;;;4.95;1.27;;;15.00;99.90;;;;;;6208225;22;20090;-95
2022/07/10 06:55:06;;;;;;;4.63;1.13;;;15.10;99.90;;;;;;6231396;22;20012;-95
2022/07/10 06:57:32;;;;;;;4.47;1.08;;;15.20;99.90;;;;;;6181794;22;20011;-95
2022/07/10 06:59:58;;;;;;;5.70;1.40;;;15.20;99.90;;;;;;6231367;22;20035;-96
2022/07/10 07:02:25;;;;;;;5.07;1.30;;;15.30;99.90;;;;;;6230768;22;20031;-94
2022/07/10 07:04:51;;;;;;;2.65;1.20;;;15.30;99.90;;;;;;6181378;22;20047;-96
2022/07/10 07:07:17;;;;;;;5.38;1.20;;;15.20;99.90;;;;;;6231342;22;20091;-95
2022/07/10 07:09:44;;;;;;;6.25;2.17;;;15.20;99.90;;;;;;6206823;22;20019;-96
2022/07/10 07:12:10;;;;;;;4.15;1.27;;;15.20;99.90;;;;;;6183721;22;20035;-95
2022/07/10 07:14:37;;;;;;;9.63;1.77;;;15.40;99.90;;;;;;6206755;22;20055;-95
2022/07/10 07:17:09;;;;;;;3.08;1.50;;;15.40;99.90;;;;;;6181549;22;20012;-95
2022/07/10 07:25:06;;;;;;;;;;;15.60;99.90;;;;;;6257310;22;20024;-95
2022/07/10 07:27:34;;;;;;;3.92;1.75;;;15.60;99.90;;;;;;6206514;22;19911;-96
2022/07/10 07:30:10;;;;;;;3.85;1.15;;;15.70;99.90;;;;;;6205732;22;20015;-96
2022/07/10 07:32:39;;;;;;;5.95;1.10;;;15.60;99.90;;;;;;6233109;22;20016;-96
2022/07/10 07:35:09;;;;;;;4.13;1.05;;;15.90;99.90;;;;;;6206856;22;20020;-95
2022/07/10 07:37:36;;;;;;;3.63;1.10;;;16.00;99.90;;;;;;6231295;22;20019;-93
2022/07/10 07:40:05;;;;;;;3.05;1.10;;;15.70;99.90;;;;;;6232407;22;20038;-95
2022/07/10 07:42:31;;;;;;;5.05;1.08;;;16.00;99.90;;;;;;6208511;22;20066;-95
2022/07/10 07:44:57;;;;;;;2.25;0.80;;;15.90;99.90;;;;;;6219952;22;20046;-95
2022/07/10 07:47:24;;;;;;;5.10;1.17;;;15.90;99.90;;;;;;6233123;22;20019;-95
2022/07/10 07:49:50;;;;;;;3.50;1.30;;;15.90;99.90;;;;;;6206606;22;20019;-94
2022/07/10 07:52:16;;;;;;;2.92;1.08;;;15.90;99.90;;;;;;6206407;22;20023;-95
2022/07/10 07:54:42;;;;;;;7.32;1.58;;;15.90;99.90;;;;;;6181222;22;20011;-94
2022/07/10 07:57:08;;;;;;;4.93;1.20;;;16.20;99.90;;;;;;6207223;22;20144;-94
2022/07/10 07:59:37;;;;;;;3.88;1.20;;;16.20;99.90;;;;;;6206669;22;20015;-93
2022/07/10 08:02:34;;;;;;;1.98;0.93;;;16.20;99.90;;;;;;6208553;22;20117;-95
2022/07/10 08:05:07;;;;;;;7.28;1.20;;;16.80;99.90;;;;;;6238511;22;20016;-94
2022/07/10 08:07:41;;;;;;;3.20;1.10;;;16.30;99.90;;;;;;6233182;22;20012;-94
2022/07/10 08:10:13;;;;;;;5.18;1.17;;;16.40;99.90;;;;;;6206594;22;20023;-96
2022/07/10 08:12:40;;;;;;;4.88;0.82;;;16.30;99.90;;;;;;6229538;22;20019;-93
2022/07/10 08:15:10;;;;;;;2.22;0.82;;;16.20;99.90;;;;;;6230878;22;20019;-96
2022/07/10 08:17:37;;;;;;;3.63;0.85;;;16.50;99.90;;;;;;6207150;22;20015;-96
2022/07/10 08:20:05;;;;;;;2.42;0.70;;;15.60;99.90;;;;;;6206840;22;20019;-96
2022/07/10 08:22:32;;;;;;;5.30;1.00;;;16.00;99.90;;;;;;6206493;22;20452;-95
2022/07/10 08:24:58;;;;;;;4.10;0.90;;;15.70;99.90;;;;;;6191251;23;20017;-96
2022/07/10 08:27:28;;;;;;;3.10;0.90;;;15.80;99.90;;;;;;6152828;23;20327;-93
2022/07/10 08:30:01;;;;;;;3.95;0.82;;;15.70;99.90;;;;;;6177682;23;20098;-95
2022/07/10 08:32:31;;;;;;;3.38;0.88;;;15.80;99.90;;;;;;6181084;23;20016;-94
2022/07/10 08:34:58;;;;;;;2.95;0.95;;;15.90;99.90;;;;;;6178031;23;20023;-95
2022/07/10 08:37:27;;;;;;;3.95;1.00;;;15.90;99.90;;;;;;6154217;23;20062;-96
2022/07/10 08:39:53;;;;;;;3.28;1.00;;;15.90;99.90;;;;;;6177667;23;20012;-94
2022/07/10 08:42:21;;;;;;;1.67;0.70;;;16.00;99.90;;;;;;6178497;23;20012;-92
2022/07/10 08:44:52;;;;;;;4.57;1.00;;;15.40;99.90;;;;;;6181320;23;20031;-94
2022/07/10 08:47:25;;;;;;;2.63;1.05;;;16.00;99.90;;;;;;6203281;23;20023;-94
2022/07/10 08:49:51;;;;;;;4.15;1.60;;;15.60;99.90;;;;;;6206038;23;20020;-94
2022/07/10 08:52:30;;;;;;;3.00;0.90;;;15.90;99.90;;;;;;6181327;23;20016;-96
2022/07/10 08:54:56;;;;;;;2.35;1.00;;;16.10;99.90;;;;;;6206102;23;20023;-96
2022/07/10 08:57:26;;;;;;;2.42;0.82;;;16.20;99.90;;;;;;6155302;23;20019;-95
2022/07/10 08:59:53;;;;;;;2.55;1.02;;;16.70;99.90;;;;;;6205165;23;20043;-96
2022/07/10 09:02:19;;;;;;;3.78;1.00;;;17.10;99.90;;;;;;6153113;23;20008;-94
2022/07/10 09:04:46;;;;;;;3.35;0.90;;;16.90;99.90;;;;;;6153973;23;20020;-95
2022/07/10 09:07:12;;;;;;;1.20;0.70;;;16.90;99.90;;;;;;6178391;23;20016;-96
2022/07/10 09:09:58;;;;;;;3.53;0.95;;;16.90;99.90;;;;;;6175651;23;20102;-94
2022/07/10 09:12:24;;;;;;;1.58;0.60;;;17.20;99.90;;;;;;6176834;23;20016;-95
2022/07/10 09:14:51;;;;;;;3.38;0.80;;;16.80;99.90;;;;;;6177572;23;20016;-93
2022/07/10 09:29:08;;;;;;;1.85;0.80;;;17.10;99.90;;;;;;6277949;22;20024;-90
2022/07/10 09:39:03;;;;;;;1.70;0.70;;;17.20;99.90;;;;;;6193850;23;20021;-91
2022/07/10 09:55:34;;;;;;;2.22;0.70;;;16.50;99.90;;;;;;5933508;24;20473;-92
2022/07/10 09:58:22;;;;;;;2.05;1.20;;;17.00;99.90;;;;;;5924368;23;20070;-89
2022/07/10 10:05:12;;;;;;;;;;;17.00;99.90;;;;;;6028667;23;20015;-91
2022/07/10 10:11:39;;;;;;;3.65;1.35;;;16.80;99.90;;;;;;6099464;23;20356;-94
2022/07/10 10:14:31;;;;;;;2.30;0.82;;;16.80;99.90;;;;;;6019801;23;20015;-95
2022/07/10 10:24:19;;;;;;;2.78;0.98;;;17.10;99.90;;;;;;6213959;23;20043;-89
2022/07/10 10:26:47;;;;;;;3.30;1.33;;;16.60;99.90;;;;;;6173645;23;20148;-89
2022/07/10 10:29:14;;;;;;;3.33;1.13;;;16.50;99.90;;;;;;6168234;23;20354;-91
2022/07/10 10:31:43;;;;;;;1.65;1.13;;;16.10;99.90;;;;;;6166227;23;20031;-90
2022/07/10 10:34:09;;;;;;;5.28;1.67;;;16.10;99.90;;;;;;6165744;23;20095;-91
2022/07/10 10:36:41;;;;;;;2.17;1.15;;;16.00;99.90;;;;;;6165160;23;20048;-91
2022/07/10 10:39:16;;;;;;;2.85;1.23;;;16.40;99.90;;;;;;6190927;23;20012;-91
2022/07/10 10:41:51;;;;;;;;;;;16.50;99.90;;;;;;6167117;23;20019;-91
2022/07/10 10:44:37;;;;;;;;;;;16.60;99.90;;;;;;6200901;22;19947;-89
2022/07/10 10:47:12;;;;;;;4.50;1.77;;;16.90;99.90;;;;;;6232000;22;19911;-92
2022/07/10 10:50:09;;;;;;;4.32;1.38;;;17.10;99.90;;;;;;6253198;22;20012;-90
2022/07/10 10:53:31;;;;;;;4.32;1.50;;;17.80;99.90;;;;;;6135220;23;20064;-91
2022/07/10 10:56:08;;;;;;;3.08;1.30;;;17.30;99.90;;;;;;6108865;23;20021;-90
2022/07/10 10:59:10;;;;;;;8.63;2.00;;;17.40;99.90;;;;;;6133384;23;20021;-92
2022/07/10 11:01:45;;;;;;;3.67;1.40;;;17.30;99.90;;;;;;6112359;23;20036;-90
2022/07/10 11:04:15;;;;;;;6.40;2.08;;;16.90;99.90;;;;;;6221021;22;20087;-93
2022/07/10 11:06:52;;;;;;;6.72;1.58;;;16.90;99.90;;;;;;6225240;22;20011;-91
2022/07/10 11:09:24;;;;;;;4.57;1.40;;;16.90;99.90;;;;;;6226430;22;20011;-90
2022/07/10 11:12:09;;;;;;;4.90;1.70;;;16.80;99.90;;;;;;6251509;22;20090;-90
2022/07/10 11:14:39;;;;;;;5.00;1.45;;;17.00;99.90;;;;;;6249946;22;20344;-90
2022/07/10 11:17:09;;;;;;;2.50;1.70;;;17.00;99.90;;;;;;6252067;22;20411;-93
2022/07/10 11:19:39;;;;;;;6.03;1.75;;;16.80;99.90;;;;;;6252174;22;20011;-92
2022/07/10 11:22:52;;;;;;;4.22;1.52;;;17.60;99.90;;;;;;6275907;22;20067;-91
2022/07/10 11:33:54;;;;;;;4.43;1.27;;;17.00;99.90;;;;;;6220309;23;20081;-93
2022/07/10 11:45:36;;;;;;;7.90;1.85;;;17.30;99.90;;;;;;5924153;24;20101;-92
2022/07/10 11:56:11;;;;;;;;;;;;;;;;;;;;;
2022/07/10 11:59:42;;;;;;;;;;;;;;;;;;;;;
2022/07/10 12:03:14;;;;;;;3.70;1.42;;;17.20;99.90;;;;;;6211139;23;20052;-93
2022/07/10 12:06:30;;;;;;;4.80;1.77;;;17.50;99.90;;;;;;6092569;23;20025;-91
2022/07/10 12:10:01;;;;;;;2.78;1.23;;;17.40;99.90;;;;;;6082425;23;20016;-94
2022/07/10 12:12:41;;;;;;;2.92;1.35;;;17.20;99.90;;;;;;6048994;23;20054;-91
2022/07/10 12:15:46;;;;;;;2.90;1.10;;;17.20;99.90;;;;;;6079098;23;20506;-93
2022/07/10 12:30:03;;;;;;;;;;;;;;;;;;;;;
2022/07/10 12:40:53;;;;;;;;;;;;;;;;;;;;;
2022/07/10 12:50:36;;;;;;;3.05;1.02;;;17.50;99.90;;;;;;5794593;24;20019;-90
2022/07/10 12:53:26;;;;;;;2.15;1.13;;;17.50;99.90;;;;;;5820544;24;20018;-91
2022/07/10 12:56:02;;;;;;;2.75;1.30;;;17.50;99.90;;;;;;5802108;24;20529;-89
2022/07/10 13:10:34;;;;;;;1.88;1.30;;;17.10;99.90;;;;;;5929191;24;20068;-91
2022/07/10 13:13:13;;;;;;;;;;;;;;;;;;;;;
2022/07/10 13:16:42;;;;;;;;;;;;;;;;;;;;;
2022/07/10 13:19:54;;;;;;;;;;;;;;;;;;;;;
2022/07/10 13:23:09;;;;;;;;;;;;;;;;;;;;;
2022/07/10 13:32:59;;;;;;;4.07;1.58;;;16.90;99.90;;;;;;5973031;23;20404;-92
2022/07/10 13:35:36;;;;;;;3.50;1.45;;;17.30;99.90;;;;;;5966324;23;20140;-91
2022/07/10 13:38:05;;;;;;;3.30;1.65;;;17.40;99.90;;;;;;5961011;23;20023;-92
2022/07/10 13:40:36;;;;;;;3.97;1.60;;;17.80;99.90;;;;;;6087973;22;20016;-90
2022/07/10 13:43:03;;;;;;;3.95;1.58;;;17.60;99.90;;;;;;6228030;22;20290;-91
2022/07/10 13:45:44;;;;;;;5.82;1.40;;;17.70;99.90;;;;;;6205774;22;20093;-91
2022/07/10 13:48:19;;;;;;;3.42;1.60;;;17.70;99.90;;;;;;6227781;22;20016;-92
2022/07/10 13:51:07;;;;;;;;;;;;;;;;;;;;;
2022/07/10 13:53:57;;;;;;;3.22;1.23;;;17.90;99.90;;;;;;6264484;22;20012;-90
2022/07/10 13:56:30;;;;;;;3.45;1.35;;;18.00;99.90;;;;;;6204296;22;20023;-89
2022/07/10 13:58:59;;;;;;;3.78;1.45;;;18.10;99.90;;;;;;6229032;22;20012;-91
2022/07/10 14:01:31;;;;;;;3.55;1.67;;;18.10;99.90;;;;;;6230576;22;20015;-91
2022/07/10 14:03:59;;;;;;;3.50;1.42;;;17.90;99.90;;;;;;6228177;22;20039;-91
2022/07/10 14:06:32;;;;;;;2.42;1.40;;;17.80;99.90;;;;;;6226286;22;20023;-92
2022/07/10 14:09:28;;;;;;;5.28;1.60;;;17.70;99.90;;;;;;6224359;22;20344;-92
2022/07/10 14:12:10;;;;;;;2.30;1.60;;;17.30;99.90;;;;;;6171310;22;20023;-90
2022/07/10 14:14:36;;;;;;;6.05;1.65;;;17.10;99.90;;;;;;6229345;22;20022;-90
2022/07/10 14:17:05;;;;;;;4.15;1.50;;;17.30;99.90;;;;;;6227042;22;20046;-93
2022/07/10 14:19:37;;;;;;;6.47;1.40;;;17.40;99.90;;;;;;6225706;22;20012;-93
2022/07/10 14:22:03;;;;;;;4.50;1.80;;;17.20;99.90;;;;;;6202800;22;20022;-92
2022/07/10 14:24:35;;;;;;;2.88;1.60;;;17.40;99.90;;;;;;6251016;22;20018;-89
2022/07/10 14:27:04;;;;;;;2.83;1.50;;;17.40;99.90;;;;;;6202531;22;20022;-92
2022/07/10 14:29:29;;;;;;;4.25;1.42;;;17.50;99.90;;;;;;6227270;22;20069;-89
2022/07/10 14:32:01;;;;;;;2.10;1.33;;;17.60;99.90;;;;;;6227166;22;20054;-94
2022/07/10 14:34:33;;;;;;;;;;;17.70;99.90;;;;;;6227067;22;20443;-94
2022/07/10 14:37:05;;;;;;;3.28;1.30;;;17.90;99.90;;;;;;6229269;22;19918;-91
2022/07/10 14:39:30;;;;;;;2.92;1.20;;;18.00;99.90;;;;;;6229027;22;20012;-93
2022/07/10 14:42:09;;;;;;;;;;;;;;;;;;;;;
2022/07/10 14:44:44;;;;;;;6.85;2.70;;;17.60;99.90;;;;;;6252315;22;20019;-90
2022/07/10 14:47:13;;;;;;;2.75;1.42;;;18.00;99.90;;;;;;6253766;22;20098;-91
2022/07/10 14:49:55;;;;;;;5.25;1.73;;;18.00;99.90;;;;;;6209357;22;20011;-88
2022/07/10 14:52:21;;;;;;;3.63;1.40;;;17.60;99.90;;;;;;6205388;22;20018;-93
2022/07/10 14:54:50;;;;;;;2.67;1.40;;;18.00;99.90;;;;;;6231280;22;20436;-94
2022/07/10 14:57:16;;;;;;;3.13;1.58;;;18.10;99.90;;;;;;6230532;22;20011;-92
2022/07/10 14:59:44;;;;;;;3.53;1.30;;;18.20;99.90;;;;;;6227660;22;20023;-91
2022/07/10 15:02:11;;;;;;;3.58;1.45;;;18.20;99.90;;;;;;6226711;22;20008;-91
2022/07/10 15:04:36;;;;;;;4.40;1.30;;;18.10;99.90;;;;;;6201892;22;20030;-90
2022/07/10 15:07:03;;;;;;;4.18;1.45;;;18.20;99.90;;;;;;6204602;22;20019;-92
2022/07/10 15:09:29;;;;;;;3.28;1.60;;;18.30;99.90;;;;;;6230012;22;20605;-92
2022/07/10 15:11:57;;;;;;;3.83;1.42;;;18.20;99.90;;;;;;6229786;22;20016;-92
2022/07/10 15:14:24;;;;;;;2.05;1.38;;;18.30;99.90;;;;;;6228014;22;20325;-90
2022/07/10 15:16:53;;;;;;;4.88;1.40;;;18.50;99.90;;;;;;6227303;22;20495;-92
2022/07/10 15:19:21;;;;;;;3.75;1.50;;;18.40;99.90;;;;;;6228120;22;20022;-90
2022/07/10 15:21:50;;;;;;;4.80;1.38;;;18.30;99.90;;;;;;6206290;22;20014;-90
2022/07/10 15:24:17;;;;;;;3.78;1.45;;;18.40;99.90;;;;;;6203712;22;20219;-91
2022/07/10 15:26:54;;;;;;;5.05;2.13;;;18.30;99.90;;;;;;6230110;22;20035;-91
2022/07/10 15:29:23;;;;;;;6.03;1.80;;;18.40;99.90;;;;;;6201779;22;20015;-91